Terminal Aerodrome Forecast
Issued by NWS Paducah, KY

Home | Current Version | Previous Version | Text Only | Print | Product List | Glossary On
Versions: 1 2 3 4 5 6 7 8 9 10 11 12 13 14 15 16 17 18 19 20
713
FTUS43 KPAH 171120
TAFEVV
TAF
KEVV 171120Z 1712/1812 22005KT P6SM SCT250
     FM171600 22011G18KT P6SM SCT250
     FM172300 22005KT P6SM BKN250=

USA.gov is the U.S. government's official web portal to all federal, state and local government web resources and services.